Time;durP1;ratioP1;P1;durP2;ratioP2;P2;SDS_P1;SDS_P2;PMS_P1;PMS_P2;Temp;Humidity;BMP_temperature;BMP_pressure;BME280_temperature;BME280_humidity;BME280_pressure;Samples;Min_cycle;Max_cycle;Signal;HPM_P1;HPM_P2
2023/07/18 00:02:11;;;;;;;5.18;4.97;;;18.00;99.90;;;;;;4995833;28;20297;-66
2023/07/18 00:04:38;;;;;;;5.28;5.07;;;18.10;99.90;;;;;;5004189;28;20206;-66
2023/07/18 00:07:06;;;;;;;5.88;5.68;;;18.00;99.90;;;;;;4994692;28;20202;-66
2023/07/18 00:09:33;;;;;;;5.45;5.25;;;18.00;99.90;;;;;;4994183;28;20226;-65
2023/07/18 00:12:02;;;;;;;7.65;7.35;;;17.90;99.90;;;;;;4994721;28;20206;-66
2023/07/18 00:14:31;;;;;;;5.05;4.85;;;17.90;99.90;;;;;;4994236;28;20214;-65
2023/07/18 00:16:58;;;;;;;5.20;5.00;;;17.90;99.90;;;;;;4993712;28;20582;-67
2023/07/18 00:19:25;;;;;;;5.20;5.00;;;17.90;99.90;;;;;;4993036;28;20232;-66
2023/07/18 00:21:51;;;;;;;5.38;5.18;;;17.90;99.90;;;;;;4993742;28;20213;-67
2023/07/18 00:24:18;;;;;;;8.80;8.40;;;17.90;99.90;;;;;;4993818;28;20214;-65
2023/07/18 00:26:46;;;;;;;5.60;5.40;;;17.90;99.90;;;;;;4993353;28;20225;-66
2023/07/18 00:29:13;;;;;;;6.82;6.53;;;17.90;99.90;;;;;;4992613;28;20225;-67
2023/07/18 00:31:41;;;;;;;6.50;6.20;;;17.80;99.90;;;;;;4993585;28;20675;-66
2023/07/18 00:34:08;;;;;;;5.60;5.40;;;17.80;99.90;;;;;;4993570;28;20202;-65
2023/07/18 00:36:34;;;;;;;5.43;5.22;;;17.70;99.90;;;;;;4993671;28;20202;-66
2023/07/18 00:39:03;;;;;;;4.82;4.63;;;17.70;99.90;;;;;;4992706;28;20744;-66
2023/07/18 00:41:30;;;;;;;4.97;4.78;;;17.60;99.90;;;;;;5026805;22;20236;-64
2023/07/18 00:43:57;;;;;;;4.85;4.65;;;17.50;99.90;;;;;;5011122;28;20205;-64
2023/07/18 00:46:23;;;;;;;5.10;4.90;;;17.40;99.90;;;;;;5012742;28;20702;-65
2023/07/18 00:48:52;;;;;;;4.78;4.57;;;17.40;99.90;;;;;;5012388;28;20304;-63
2023/07/18 00:51:19;;;;;;;6.90;6.60;;;17.30;99.90;;;;;;5011969;28;20231;-65
2023/07/18 00:53:46;;;;;;;5.82;5.53;;;17.40;99.90;;;;;;5012528;28;20263;-66
2023/07/18 00:56:13;;;;;;;4.93;4.72;;;17.40;99.90;;;;;;5012114;28;20201;-64
2023/07/18 00:58:41;;;;;;;5.78;5.57;;;17.40;99.90;;;;;;5011657;28;20213;-64
2023/07/18 01:01:08;;;;;;;5.72;5.53;;;17.30;99.90;;;;;;5009833;28;20767;-65
2023/07/18 01:03:37;;;;;;;7.05;6.65;;;17.30;99.90;;;;;;5012406;28;20320;-64
2023/07/18 01:06:06;;;;;;;5.82;5.63;;;17.20;99.90;;;;;;5025281;28;20722;-66
2023/07/18 01:08:33;;;;;;;5.47;5.28;;;17.20;99.90;;;;;;5008602;28;20212;-66
2023/07/18 01:11:00;;;;;;;5.55;5.35;;;17.10;99.90;;;;;;5024321;28;20224;-65
2023/07/18 01:13:27;;;;;;;5.18;4.97;;;17.10;99.90;;;;;;5017604;28;20196;-66
2023/07/18 01:15:54;;;;;;;5.40;5.20;;;17.00;99.90;;;;;;5017208;28;20201;-69
2023/07/18 01:18:21;;;;;;;5.32;5.13;;;17.10;99.90;;;;;;5021439;28;20244;-66
2023/07/18 01:20:48;;;;;;;5.05;4.85;;;17.10;99.90;;;;;;5019851;28;20285;-68
2023/07/18 01:23:16;;;;;;;5.20;5.00;;;17.20;99.90;;;;;;5019172;28;20223;-68
2023/07/18 01:25:43;;;;;;;5.15;4.95;;;17.10;99.90;;;;;;5015684;28;20226;-68
2023/07/18 01:28:11;;;;;;;5.10;4.90;;;17.10;99.90;;;;;;5012662;28;20209;-66
2023/07/18 01:30:38;;;;;;;5.38;5.18;;;17.10;99.90;;;;;;5011505;28;20271;-66
2023/07/18 01:33:06;;;;;;;5.15;4.95;;;17.10;99.90;;;;;;5022689;28;20201;-65
2023/07/18 01:35:33;;;;;;;4.72;4.63;;;17.10;99.90;;;;;;5018418;28;20206;-66
2023/07/18 01:38:00;;;;;;;5.50;5.30;;;17.10;99.90;;;;;;5011362;28;20215;-66
2023/07/18 01:40:28;;;;;;;5.47;5.28;;;17.10;99.90;;;;;;5011093;28;20291;-66
2023/07/18 01:42:56;;;;;;;5.43;5.22;;;17.00;99.90;;;;;;5011683;28;20211;-65
2023/07/18 01:45:24;;;;;;;6.18;5.97;;;16.80;99.90;;;;;;5011198;28;20209;-67
2023/07/18 01:47:52;;;;;;;6.03;5.72;;;16.80;99.90;;;;;;5011156;28;20312;-66
2023/07/18 01:50:20;;;;;;;5.22;5.03;;;16.70;99.90;;;;;;5010064;28;20229;-67
2023/07/18 01:52:47;;;;;;;5.45;5.25;;;16.60;99.90;;;;;;5011761;28;20816;-65
2023/07/18 01:55:14;;;;;;;5.10;4.90;;;16.60;99.90;;;;;;5012133;28;20212;-66
2023/07/18 01:57:46;;;;;;;5.20;5.00;;;16.60;99.90;;;;;;5012344;28;20206;-66
2023/07/18 02:00:18;;;;;;;5.40;5.20;;;16.60;99.90;;;;;;5010406;28;20268;-67
2023/07/18 02:02:47;;;;;;;5.78;5.53;;;16.60;99.90;;;;;;5010850;28;20211;-67
2023/07/18 02:05:16;;;;;;;5.65;5.45;;;16.70;99.90;;;;;;5011406;28;20208;-67
2023/07/18 02:07:42;;;;;;;5.40;5.20;;;16.60;99.90;;;;;;5011262;28;20220;-66
2023/07/18 02:10:10;;;;;;;5.97;5.78;;;16.60;99.90;;;;;;5010145;28;20255;-67
2023/07/18 02:12:37;;;;;;;5.60;5.40;;;16.60;99.90;;;;;;5009727;28;20802;-67
2023/07/18 02:15:06;;;;;;;5.35;5.15;;;16.70;99.90;;;;;;5024875;28;20211;-66
2023/07/18 02:17:34;;;;;;;6.05;5.85;;;16.60;99.90;;;;;;5020226;28;20205;-66
2023/07/18 02:20:05;;;;;;;5.25;5.05;;;16.60;99.90;;;;;;5017836;28;20776;-66
2023/07/18 02:22:34;;;;;;;5.00;4.80;;;16.70;99.90;;;;;;5022738;28;20738;-67
2023/07/18 02:25:01;;;;;;;5.30;5.10;;;16.60;99.90;;;;;;5020996;28;20218;-67
2023/07/18 02:27:28;;;;;;;5.20;5.00;;;16.70;99.90;;;;;;5017156;28;20884;-67
2023/07/18 02:29:55;;;;;;;5.38;5.18;;;16.70;99.90;;;;;;5016258;28;20229;-67
2023/07/18 02:32:23;;;;;;;5.40;5.20;;;16.70;99.90;;;;;;5020073;28;20938;-68
2023/07/18 02:34:50;;;;;;;5.32;5.13;;;16.70;99.90;;;;;;5023577;28;20198;-67
2023/07/18 02:37:16;;;;;;;5.30;5.10;;;16.70;99.90;;;;;;5018259;28;20207;-66
2023/07/18 02:39:44;;;;;;;5.50;5.30;;;16.70;99.90;;;;;;5013779;28;20215;-68
2023/07/18 02:42:11;;;;;;;8.25;7.95;;;16.60;99.90;;;;;;5014826;28;20217;-66
2023/07/18 02:44:38;;;;;;;5.40;5.20;;;16.50;99.90;;;;;;5029496;28;20635;-67
2023/07/18 02:47:05;;;;;;;5.15;4.95;;;16.40;99.90;;;;;;5029869;28;20732;-65
2023/07/18 02:49:34;;;;;;;5.10;4.90;;;16.40;99.90;;;;;;5029026;28;20205;-67
2023/07/18 02:52:01;;;;;;;5.50;5.20;;;16.30;99.90;;;;;;5029987;28;20213;-66
2023/07/18 02:54:28;;;;;;;5.43;5.22;;;16.30;99.90;;;;;;5029707;28;20207;-66
2023/07/18 02:56:56;;;;;;;5.03;4.83;;;16.20;99.90;;;;;;5029713;28;20205;-67
2023/07/18 02:59:23;;;;;;;4.60;4.50;;;16.20;99.90;;;;;;5027965;28;20204;-67
2023/07/18 03:01:50;;;;;;;5.15;4.88;;;16.10;99.90;;;;;;5030713;28;20240;-67
2023/07/18 03:04:17;;;;;;;5.18;4.97;;;16.10;99.90;;;;;;5030164;28;20208;-68
2023/07/18 03:06:47;;;;;;;5.13;4.93;;;16.20;99.90;;;;;;5029519;28;20266;-65
2023/07/18 03:09:16;;;;;;;5.18;4.97;;;16.20;99.90;;;;;;5028957;28;20205;-66
2023/07/18 03:11:42;;;;;;;5.18;4.97;;;16.20;99.90;;;;;;5029392;28;20311;-66
2023/07/18 03:14:11;;;;;;;4.93;4.72;;;16.20;99.90;;;;;;5029171;28;20219;-66
2023/07/18 03:16:38;;;;;;;5.03;4.82;;;16.20;99.90;;;;;;5029773;28;20224;-65
2023/07/18 03:19:05;;;;;;;5.65;5.45;;;16.20;99.90;;;;;;5012546;28;20753;-67
2023/07/18 03:21:32;;;;;;;5.40;5.20;;;16.20;99.90;;;;;;5018548;28;20307;-66
2023/07/18 03:24:00;;;;;;;5.43;5.22;;;16.10;99.90;;;;;;5023147;28;20681;-66
2023/07/18 03:26:27;;;;;;;5.40;5.20;;;16.10;99.90;;;;;;5010815;28;20224;-66
2023/07/18 03:28:56;;;;;;;5.18;4.97;;;16.10;99.90;;;;;;5009972;28;20212;-65
2023/07/18 03:31:22;;;;;;;5.25;5.05;;;16.00;99.90;;;;;;5012060;28;20225;-67
2023/07/18 03:33:50;;;;;;;5.18;4.97;;;16.00;99.90;;;;;;5018737;28;20203;-66
2023/07/18 03:36:20;;;;;;;4.78;4.57;;;15.90;99.90;;;;;;5026057;28;20207;-68
2023/07/18 03:38:47;;;;;;;4.60;4.50;;;15.90;99.90;;;;;;5011344;28;20263;-67
2023/07/18 03:41:15;;;;;;;4.95;4.70;;;16.00;99.90;;;;;;5010858;28;20237;-67
2023/07/18 03:43:42;;;;;;;5.30;5.10;;;16.00;99.90;;;;;;5019010;28;20204;-67
2023/07/18 03:46:09;;;;;;;5.30;5.10;;;16.00;99.90;;;;;;5021675;28;20229;-66
2023/07/18 03:48:37;;;;;;;5.18;4.97;;;15.90;99.90;;;;;;5029260;28;20205;-65
2023/07/18 03:51:05;;;;;;;5.25;5.05;;;16.00;99.90;;;;;;5028931;28;20278;-66
2023/07/18 03:53:32;;;;;;;5.10;4.90;;;15.90;99.90;;;;;;5029453;28;20239;-67
2023/07/18 03:56:03;;;;;;;5.15;4.95;;;15.90;99.90;;;;;;5029916;28;20215;-68
2023/07/18 03:58:31;;;;;;;5.00;4.80;;;15.90;99.90;;;;;;5029376;28;20201;-68
2023/07/18 04:00:58;;;;;;;5.03;4.82;;;15.90;99.90;;;;;;5031018;28;20260;-67
2023/07/18 04:03:25;;;;;;;5.30;5.10;;;15.80;99.90;;;;;;5032938;28;20594;-67
2023/07/18 04:05:52;;;;;;;5.18;4.97;;;15.80;99.90;;;;;;5032647;28;20204;-63
2023/07/18 04:08:19;;;;;;;5.45;5.25;;;15.90;99.90;;;;;;5020038;28;20201;-59
2023/07/18 04:10:46;;;;;;;5.10;4.90;;;16.80;99.90;;;;;;5011263;28;20229;-60
2023/07/18 04:13:12;;;;;;;5.38;5.18;;;17.70;99.90;;;;;;5013848;28;20215;-59
2023/07/18 04:15:41;;;;;;;5.10;4.90;;;18.20;99.90;;;;;;5014009;28;20228;-59
2023/07/18 04:18:07;;;;;;;5.18;4.97;;;18.50;99.90;;;;;;5012093;28;20226;-59
2023/07/18 04:20:34;;;;;;;5.15;4.95;;;18.80;99.90;;;;;;5012626;28;20233;-61
2023/07/18 04:23:01;;;;;;;5.53;5.32;;;19.10;99.90;;;;;;5014455;28;20219;-63
2023/07/18 04:25:32;;;;;;;5.30;5.10;;;19.20;99.90;;;;;;5016058;28;20206;-60
2023/07/18 04:27:59;;;;;;;5.40;5.20;;;19.30;99.90;;;;;;5011748;28;20317;-60
2023/07/18 04:30:26;;;;;;;5.35;5.15;;;19.30;99.90;;;;;;5012740;28;20228;-60
2023/07/18 04:32:54;;;;;;;5.35;5.15;;;19.40;99.90;;;;;;5029160;28;20210;-62
2023/07/18 04:35:21;;;;;;;5.40;5.20;;;19.40;99.90;;;;;;5013357;28;20213;-62
2023/07/18 04:37:50;;;;;;;5.45;5.25;;;19.50;99.90;;;;;;5012132;28;20204;-61
2023/07/18 04:40:17;;;;;;;5.30;5.10;;;19.50;99.90;;;;;;5018835;28;20237;-59
2023/07/18 04:42:43;;;;;;;5.50;5.30;;;19.60;99.90;;;;;;5017387;28;20211;-60
2023/07/18 04:45:11;;;;;;;5.47;5.28;;;19.60;99.90;;;;;;5016543;28;20778;-62
2023/07/18 04:47:37;;;;;;;5.78;5.47;;;19.60;99.90;;;;;;5012193;28;20576;-61
2023/07/18 04:50:10;;;;;;;5.55;5.35;;;19.50;99.90;;;;;;5011124;28;20235;-59
2023/07/18 04:52:37;;;;;;;5.70;5.50;;;19.30;99.90;;;;;;5013415;28;20205;-62
2023/07/18 04:55:05;;;;;;;5.20;5.00;;;19.40;99.90;;;;;;5013253;28;20201;-61
2023/07/18 04:57:32;;;;;;;5.70;5.50;;;19.40;99.90;;;;;;5012791;28;20216;-59
2023/07/18 04:59:58;;;;;;;6.03;5.78;;;19.50;99.90;;;;;;5012277;28;20233;-60
2023/07/18 05:02:25;;;;;;;5.45;5.25;;;19.40;99.90;;;;;;5013765;28;20228;-62
2023/07/18 05:04:52;;;;;;;5.57;5.38;;;19.60;99.90;;;;;;5013958;28;20790;-61
2023/07/18 05:07:20;;;;;;;6.55;6.35;;;19.40;99.90;;;;;;5011512;28;20229;-61
2023/07/18 05:09:47;;;;;;;6.80;6.60;;;19.40;99.90;;;;;;5014318;28;20196;-59
2023/07/18 05:12:14;;;;;;;5.68;5.47;;;19.40;99.90;;;;;;5019810;28;20213;-62
2023/07/18 05:14:41;;;;;;;7.47;7.18;;;18.80;99.90;;;;;;5020831;28;20672;-61
2023/07/18 05:17:07;;;;;;;5.40;5.20;;;18.90;99.90;;;;;;5022634;28;20584;-61
2023/07/18 05:19:35;;;;;;;6.60;6.40;;;19.10;99.90;;;;;;5011455;28;20227;-60
2023/07/18 05:22:02;;;;;;;5.55;5.25;;;19.20;99.90;;;;;;5011784;28;20691;-62
2023/07/18 05:24:30;;;;;;;5.90;5.70;;;19.30;99.90;;;;;;5012273;28;20205;-58
2023/07/18 05:26:57;;;;;;;5.65;5.45;;;19.50;99.90;;;;;;5031545;28;20226;-60
2023/07/18 05:29:24;;;;;;;5.80;5.60;;;19.60;99.90;;;;;;5030666;28;20730;-59
2023/07/18 05:31:50;;;;;;;5.75;5.55;;;19.60;99.90;;;;;;5029549;28;20227;-61
2023/07/18 05:34:17;;;;;;;5.40;5.20;;;19.70;99.90;;;;;;5006896;28;20256;-67
2023/07/18 05:36:44;;;;;;;5.60;5.40;;;19.60;99.90;;;;;;5006849;28;20205;-67
2023/07/18 05:39:11;;;;;;;5.93;5.63;;;19.40;99.90;;;;;;5009904;28;20214;-67
2023/07/18 05:41:39;;;;;;;5.70;5.50;;;19.30;99.90;;;;;;5009447;28;20235;-67
2023/07/18 05:44:06;;;;;;;5.75;5.55;;;19.30;99.90;;;;;;5011393;28;20599;-67
2023/07/18 05:46:33;;;;;;;5.63;5.43;;;19.40;99.90;;;;;;5017858;28;20197;-66
2023/07/18 05:49:00;;;;;;;5.60;5.40;;;19.50;99.90;;;;;;5012033;28;20679;-70
2023/07/18 05:51:27;;;;;;;5.93;5.72;;;19.60;99.90;;;;;;5019666;28;20744;-68
2023/07/18 05:53:54;;;;;;;6.00;5.78;;;19.70;99.90;;;;;;5013129;28;20235;-67
2023/07/18 05:56:21;;;;;;;6.10;5.90;;;19.80;99.90;;;;;;5012885;28;20321;-66
2023/07/18 05:58:49;;;;;;;6.22;6.03;;;19.90;99.90;;;;;;5025489;28;20193;-67
2023/07/18 06:01:16;;;;;;;5.85;5.65;;;20.00;99.90;;;;;;5010693;28;20317;-67
2023/07/18 06:03:43;;;;;;;6.53;6.25;;;20.20;99.90;;;;;;5004964;28;20633;-67
2023/07/18 06:06:10;;;;;;;6.35;6.15;;;20.40;99.90;;;;;;5011663;28;20246;-65
2023/07/18 06:08:37;;;;;;;6.28;6.07;;;20.50;99.90;;;;;;5018154;28;20278;-65
2023/07/18 06:11:04;;;;;;;6.53;6.32;;;20.60;99.90;;;;;;5016119;28;20220;-65
2023/07/18 06:13:30;;;;;;;6.45;6.22;;;20.80;99.90;;;;;;5021885;28;20288;-65
2023/07/18 06:15:59;;;;;;;6.57;6.38;;;20.90;99.90;;;;;;5029153;28;20234;-66
2023/07/18 06:18:26;;;;;;;6.22;6.03;;;20.90;99.90;;;;;;5029498;28;20670;-67
2023/07/18 06:20:52;;;;;;;6.03;5.82;;;21.10;99.90;;;;;;5029235;28;20224;-66
2023/07/18 06:23:19;;;;;;;5.90;5.63;;;21.20;99.90;;;;;;5031080;28;20215;-65
2023/07/18 06:25:46;;;;;;;6.10;5.90;;;21.30;99.90;;;;;;5035038;28;20674;-65
2023/07/18 06:28:13;;;;;;;5.97;5.78;;;21.30;99.90;;;;;;5034924;28;20235;-65
2023/07/18 06:30:40;;;;;;;6.18;5.97;;;21.30;99.90;;;;;;5033216;28;20235;-65
2023/07/18 06:33:09;;;;;;;6.38;6.18;;;21.40;99.90;;;;;;5033320;28;20215;-66
2023/07/18 06:35:37;;;;;;;6.10;5.90;;;21.50;99.90;;;;;;5030671;28;20750;-65
2023/07/18 06:38:04;;;;;;;6.40;6.20;;;21.50;99.90;;;;;;5030281;28;20205;-66
2023/07/18 06:40:30;;;;;;;6.32;6.03;;;21.30;99.90;;;;;;5051212;22;20582;-67
2023/07/18 06:42:59;;;;;;;6.15;5.95;;;21.30;99.90;;;;;;5011766;28;20231;-68
2023/07/18 06:45:26;;;;;;;5.88;5.68;;;21.30;99.90;;;;;;5010736;28;20212;-66
2023/07/18 06:47:53;;;;;;;6.00;5.80;;;21.40;99.90;;;;;;5010335;28;20229;-68
2023/07/18 06:50:21;;;;;;;6.15;5.95;;;21.60;99.90;;;;;;5010244;28;20229;-67
2023/07/18 06:52:48;;;;;;;6.88;6.68;;;21.80;99.90;;;;;;5011281;28;20231;-66
2023/07/18 06:55:16;;;;;;;5.70;5.50;;;21.90;99.90;;;;;;5010406;28;20737;-67
2023/07/18 06:57:43;;;;;;;6.28;6.07;;;21.70;99.90;;;;;;5011511;28;20201;-67
2023/07/18 07:00:11;;;;;;;6.30;6.00;;;21.90;99.90;;;;;;5012793;28;20235;-65
2023/07/18 07:02:38;;;;;;;5.95;5.65;;;21.90;99.90;;;;;;5012371;28;20592;-66
2023/07/18 07:05:05;;;;;;;6.45;6.25;;;21.80;99.90;;;;;;5010285;28;20239;-66
2023/07/18 07:07:33;;;;;;;6.25;6.05;;;21.90;99.90;;;;;;5010068;28;20237;-66
2023/07/18 07:10:00;;;;;;;6.65;6.43;;;22.10;99.90;;;;;;5009249;28;20505;-67
2023/07/18 07:12:27;;;;;;;6.68;6.38;;;22.20;99.90;;;;;;5011427;28;20205;-67
2023/07/18 07:14:54;;;;;;;6.35;6.10;;;22.30;99.90;;;;;;5009563;28;20679;-67
2023/07/18 07:17:21;;;;;;;6.20;5.93;;;22.40;99.90;;;;;;5009860;28;20414;-67
2023/07/18 07:19:47;;;;;;;6.40;6.10;;;22.40;99.90;;;;;;5009351;28;20220;-66
2023/07/18 07:22:14;;;;;;;6.18;5.95;;;22.50;99.90;;;;;;5009970;28;20737;-67
2023/07/18 07:24:43;;;;;;;6.30;6.10;;;22.60;99.90;;;;;;5010436;28;20205;-68
2023/07/18 07:27:09;;;;;;;6.30;6.10;;;22.60;99.90;;;;;;5011002;28;20209;-65
2023/07/18 07:29:39;;;;;;;6.30;6.10;;;22.70;99.90;;;;;;5017581;28;20292;-69
2023/07/18 07:32:07;;;;;;;6.60;6.40;;;22.60;99.90;;;;;;5021482;28;20733;-66
2023/07/18 07:34:34;;;;;;;6.32;6.13;;;22.60;99.90;;;;;;5012351;28;20201;-67
2023/07/18 07:37:00;;;;;;;6.32;6.03;;;22.70;99.90;;;;;;5017336;28;20292;-66
2023/07/18 07:39:27;;;;;;;6.20;6.00;;;22.70;99.90;;;;;;5016287;28;20209;-66
2023/07/18 07:41:56;;;;;;;6.50;6.30;;;22.80;99.90;;;;;;5015876;28;20256;-68
2023/07/18 07:44:22;;;;;;;6.50;6.30;;;22.80;99.90;;;;;;5015458;28;20738;-67
2023/07/18 07:46:49;;;;;;;7.05;6.75;;;23.00;99.90;;;;;;5014997;28;20307;-67
2023/07/18 07:49:16;;;;;;;8.65;8.35;;;23.00;99.90;;;;;;5017793;28;20740;-66
2023/07/18 07:51:43;;;;;;;6.43;6.22;;;23.00;99.90;;;;;;5019081;28;20664;-65
2023/07/18 07:54:10;;;;;;;6.30;6.10;;;23.10;99.90;;;;;;5019067;28;20213;-68
2023/07/18 07:56:37;;;;;;;6.45;6.25;;;23.20;99.90;;;;;;5017588;28;20205;-67
2023/07/18 07:59:05;;;;;;;7.05;6.65;;;23.30;99.90;;;;;;5015113;28;20684;-69
2023/07/18 08:01:32;;;;;;;6.05;5.82;;;23.30;99.90;;;;;;5015367;28;20237;-67
2023/07/18 08:03:59;;;;;;;6.30;6.10;;;23.40;99.90;;;;;;5014621;28;20227;-67
2023/07/18 08:06:25;;;;;;;6.30;6.10;;;23.50;99.90;;;;;;5013563;28;20216;-66
2023/07/18 08:08:52;;;;;;;6.10;5.90;;;23.50;99.90;;;;;;5014880;28;20247;-68
2023/07/18 08:11:19;;;;;;;6.75;6.55;;;23.50;99.90;;;;;;5014963;28;20255;-66
2023/07/18 08:13:46;;;;;;;7.00;6.70;;;23.60;99.90;;;;;;5016108;28;20300;-66
2023/07/18 08:16:14;;;;;;;6.57;6.28;;;23.80;99.90;;;;;;5014783;28;20205;-66
2023/07/18 08:18:41;;;;;;;6.30;6.10;;;23.90;99.90;;;;;;5014443;28;20205;-67
2023/07/18 08:21:08;;;;;;;6.15;5.95;;;23.90;99.90;;;;;;5013592;28;20275;-66
2023/07/18 08:23:35;;;;;;;6.60;6.40;;;24.00;99.90;;;;;;5013841;28;20227;-67
2023/07/18 08:26:01;;;;;;;6.30;6.10;;;24.10;99.90;;;;;;5014191;28;20476;-66
2023/07/18 08:28:28;;;;;;;7.95;7.65;;;24.20;99.90;;;;;;5014002;28;20715;-67
2023/07/18 08:30:55;;;;;;;6.80;6.60;;;24.30;99.90;;;;;;5013290;28;20226;-66
2023/07/18 08:33:24;;;;;;;8.10;7.80;;;24.40;99.90;;;;;;5016601;28;20212;-67
2023/07/18 08:35:51;;;;;;;7.55;7.30;;;24.40;99.90;;;;;;5023367;28;20213;-66
2023/07/18 08:38:18;;;;;;;6.60;6.32;;;24.30;99.90;;;;;;5018421;28;20619;-67
2023/07/18 08:40:45;;;;;;;6.53;6.32;;;24.20;99.90;;;;;;5014336;28;20670;-67
2023/07/18 08:43:14;;;;;;;13.18;12.68;;;24.40;99.90;;;;;;5016020;28;20213;-65
2023/07/18 08:45:41;;;;;;;7.38;7.10;;;24.50;99.90;;;;;;5016386;28;20209;-67
2023/07/18 08:48:08;;;;;;;8.00;7.70;;;24.50;99.90;;;;;;5017962;28;20239;-66
2023/07/18 08:50:38;;;;;;;10.23;9.68;;;24.70;99.90;;;;;;5013959;28;20229;-67
2023/07/18 08:53:05;;;;;;;7.10;6.80;;;24.70;99.90;;;;;;5015039;28;20296;-66
2023/07/18 08:55:32;;;;;;;7.13;6.88;;;24.60;99.90;;;;;;5014051;28;20212;-66
2023/07/18 08:58:00;;;;;;;7.65;7.43;;;24.90;99.90;;;;;;5014626;28;20660;-67
2023/07/18 09:00:28;;;;;;;7.53;7.22;;;25.00;99.90;;;;;;5013137;28;20572;-65
2023/07/18 09:02:55;;;;;;;7.38;7.07;;;25.20;99.90;;;;;;5015866;28;20240;-66
2023/07/18 09:05:28;;;;;;;7.80;7.50;;;25.30;99.90;;;;;;5020028;28;20212;-66
2023/07/18 09:07:57;;;;;;;7.68;7.38;;;25.50;99.90;;;;;;5013772;28;20229;-66
2023/07/18 09:10:25;;;;;;;8.18;7.88;;;25.60;99.90;;;;;;5013921;28;20715;-67
2023/07/18 09:12:52;;;;;;;7.53;7.22;;;25.50;99.90;;;;;;5014465;28;20205;-69
2023/07/18 09:15:19;;;;;;;8.13;7.82;;;25.60;99.90;;;;;;5017833;28;20209;-67
2023/07/18 09:17:49;;;;;;;7.90;7.50;;;25.70;99.90;;;;;;5015967;28;20690;-67
2023/07/18 09:20:18;;;;;;;7.93;7.63;;;25.90;99.90;;;;;;5014458;28;20727;-67
2023/07/18 09:22:45;;;;;;;8.38;8.07;;;26.00;99.90;;;;;;5013481;28;20205;-66
2023/07/18 09:25:16;;;;;;;9.10;8.80;;;25.90;99.90;;;;;;5012869;28;20296;-67
2023/07/18 09:27:43;;;;;;;8.38;8.07;;;25.60;99.90;;;;;;5012192;28;20593;-67
2023/07/18 09:30:10;;;;;;;8.65;8.35;;;25.40;99.90;;;;;;5010770;28;20239;-66
2023/07/18 09:32:38;;;;;;;8.02;7.72;;;25.20;99.90;;;;;;5011819;28;20205;-67
2023/07/18 09:35:05;;;;;;;7.63;7.32;;;25.00;99.90;;;;;;5011442;28;20201;-69
2023/07/18 09:37:43;;;;;;;7.10;6.80;;;24.90;99.90;;;;;;5013005;28;20205;-67
2023/07/18 09:40:12;;;;;;;6.78;6.57;;;24.80;99.90;;;;;;5018201;28;20618;-69
2023/07/18 09:42:42;;;;;;;7.10;6.90;;;24.70;99.90;;;;;;5017711;28;20205;-68
2023/07/18 09:45:11;;;;;;;7.63;7.32;;;24.60;99.90;;;;;;5016857;28;20687;-68
2023/07/18 09:47:40;;;;;;;6.88;6.68;;;24.40;99.90;;;;;;5012351;28;20205;-66
2023/07/18 09:50:07;;;;;;;7.88;7.57;;;24.30;99.90;;;;;;5012012;28;20205;-68
2023/07/18 09:52:36;;;;;;;8.23;7.93;;;24.20;99.90;;;;;;5012139;28;20232;-67
2023/07/18 09:55:06;;;;;;;7.05;6.85;;;24.10;99.90;;;;;;5011589;28;20215;-69
2023/07/18 09:57:35;;;;;;;6.70;6.40;;;24.00;99.90;;;;;;5014388;28;20194;-67
2023/07/18 10:00:05;;;;;;;6.30;6.00;;;24.10;99.90;;;;;;5013022;28;20292;-68
2023/07/18 10:02:34;;;;;;;6.32;6.05;;;24.20;99.90;;;;;;5010859;28;20186;-66
2023/07/18 10:05:02;;;;;;;6.55;6.35;;;24.40;99.90;;;;;;5011417;28;20215;-65
2023/07/18 10:07:30;;;;;;;6.72;6.43;;;24.90;99.90;;;;;;5012897;28;20220;-67
2023/07/18 10:09:57;;;;;;;6.78;6.57;;;25.50;99.90;;;;;;5020376;28;20318;-67
2023/07/18 10:12:24;;;;;;;7.60;7.20;;;25.70;99.90;;;;;;5030120;28;20208;-66
2023/07/18 10:14:56;;;;;;;7.10;6.90;;;26.10;99.90;;;;;;5030276;28;20247;-66
2023/07/18 10:17:35;;;;;;;8.00;7.70;;;26.30;99.90;;;;;;5031148;28;20247;-67
2023/07/18 10:20:05;;;;;;;7.80;7.40;;;26.30;99.90;;;;;;5029891;28;20648;-67
2023/07/18 10:22:32;;;;;;;7.90;7.60;;;26.40;99.90;;;;;;5029801;28;20671;-67
2023/07/18 10:25:01;;;;;;;8.10;7.80;;;26.20;99.90;;;;;;5031198;28;20597;-66
2023/07/18 10:27:38;;;;;;;17.10;16.30;;;25.90;99.90;;;;;;5030728;28;20674;-66
2023/07/18 10:30:06;;;;;;;11.15;10.70;;;25.80;99.90;;;;;;5029614;28;20302;-66
2023/07/18 10:32:37;;;;;;;7.70;7.40;;;25.60;99.90;;;;;;5030451;28;20208;-64
2023/07/18 10:35:07;;;;;;;7.80;7.50;;;25.50;99.90;;;;;;5031011;28;20250;-65
2023/07/18 10:37:36;;;;;;;8.02;7.72;;;25.50;99.90;;;;;;5044581;28;20189;-70
2023/07/18 10:40:05;;;;;;;7.90;7.60;;;25.30;99.90;;;;;;5036430;28;20197;-66
2023/07/18 10:42:34;;;;;;;6.80;6.60;;;25.20;99.90;;;;;;5011914;28;20244;-68
2023/07/18 10:45:03;;;;;;;7.53;7.22;;;25.10;99.90;;;;;;5011407;28;20252;-66
2023/07/18 10:47:31;;;;;;;6.60;6.40;;;25.10;99.90;;;;;;5011700;28;20620;-65
2023/07/18 10:50:00;;;;;;;6.90;6.60;;;25.10;99.90;;;;;;5010635;28;20416;-66
2023/07/18 10:52:28;;;;;;;7.03;6.82;;;25.00;99.90;;;;;;5015884;28;20454;-66
2023/07/18 10:54:57;;;;;;;6.90;6.70;;;25.00;99.90;;;;;;5011508;28;20206;-66
2023/07/18 10:57:25;;;;;;;7.05;6.85;;;24.90;99.90;;;;;;5011885;28;20629;-68
2023/07/18 10:59:53;;;;;;;6.60;6.30;;;24.90;99.90;;;;;;5010578;28;20702;-65
2023/07/18 11:02:20;;;;;;;7.20;6.90;;;24.80;99.90;;;;;;5011082;28;20212;-66
2023/07/18 11:04:47;;;;;;;6.80;6.60;;;24.80;99.90;;;;;;5010987;28;20216;-66
2023/07/18 11:07:16;;;;;;;6.60;6.30;;;24.70;99.90;;;;;;5010820;28;20212;-66
2023/07/18 11:09:43;;;;;;;7.15;6.85;;;24.60;99.90;;;;;;5012357;28;20221;-67
2023/07/18 11:12:18;;;;;;;12.20;11.50;;;24.40;99.90;;;;;;5014125;28;20765;-68
2023/07/18 11:14:45;;;;;;;6.65;6.35;;;24.00;99.90;;;;;;5017445;28;20200;-66
2023/07/18 11:17:13;;;;;;;7.63;7.32;;;23.90;99.90;;;;;;5014645;28;20683;-66
2023/07/18 11:19:41;;;;;;;7.28;6.97;;;23.80;99.90;;;;;;5014386;28;20197;-67
2023/07/18 11:22:08;;;;;;;7.38;7.07;;;23.80;99.90;;;;;;4994650;28;20328;-66
2023/07/18 11:24:36;;;;;;;7.22;6.95;;;23.70;99.90;;;;;;4997627;28;20230;-66
2023/07/18 11:27:15;;;;;;;7.85;7.55;;;23.70;99.90;;;;;;5000880;28;20210;-66
2023/07/18 11:29:49;;;;;;;8.55;8.25;;;23.60;99.90;;;;;;4995795;28;20232;-67
2023/07/18 11:32:29;;;;;;;7.93;7.63;;;23.60;99.90;;;;;;4996166;28;20201;-65
2023/07/18 11:34:57;;;;;;;7.55;7.25;;;23.50;99.90;;;;;;4994572;28;20563;-66
2023/07/18 11:37:25;;;;;;;7.93;7.63;;;23.50;99.90;;;;;;4995219;28;20264;-66
2023/07/18 11:39:55;;;;;;;8.70;8.40;;;23.60;99.90;;;;;;4994873;28;20245;-66
2023/07/18 11:42:22;;;;;;;8.60;8.20;;;23.70;99.90;;;;;;4995278;28;20297;-68
2023/07/18 11:44:52;;;;;;;8.07;7.78;;;23.80;99.90;;;;;;4994490;28;20315;-66
2023/07/18 11:47:19;;;;;;;8.38;8.07;;;23.80;99.90;;;;;;4994585;28;20224;-66
2023/07/18 11:49:46;;;;;;;8.68;8.38;;;23.90;99.90;;;;;;4993427;28;20244;-68
2023/07/18 11:52:13;;;;;;;7.22;7.03;;;24.10;99.90;;;;;;4993996;28;20226;-67
2023/07/18 11:54:41;;;;;;;7.80;7.50;;;24.10;99.90;;;;;;4994118;28;20255;-65
2023/07/18 11:57:09;;;;;;;8.80;8.50;;;24.40;99.90;;;;;;4993460;28;20210;-65
2023/07/18 11:59:36;;;;;;;8.18;7.88;;;24.50;99.90;;;;;;4993226;28;20755;-65
2023/07/18 12:02:03;;;;;;;9.07;8.75;;;24.60;99.90;;;;;;4993440;28;20234;-65
2023/07/18 12:04:31;;;;;;;9.00;8.70;;;24.80;99.90;;;;;;4994027;28;20205;-66
2023/07/18 12:06:58;;;;;;;8.05;7.75;;;24.80;99.90;;;;;;4993816;28;20304;-66
2023/07/18 12:09:25;;;;;;;7.60;7.40;;;25.00;99.90;;;;;;4996403;28;20225;-71
2023/07/18 12:11:52;;;;;;;8.43;8.13;;;25.10;99.90;;;;;;5010492;28;20337;-67
2023/07/18 12:14:20;;;;;;;7.70;7.40;;;25.30;99.90;;;;;;4995351;28;20210;-67
2023/07/18 12:16:47;;;;;;;7.75;7.45;;;25.40;99.90;;;;;;4994067;28;20208;-66
2023/07/18 12:19:14;;;;;;;11.50;11.10;;;25.40;99.90;;;;;;4993055;28;20210;-66
2023/07/18 12:21:40;;;;;;;7.82;7.53;;;25.40;99.90;;;;;;5002635;28;20241;-66
2023/07/18 12:24:08;;;;;;;7.05;6.75;;;25.30;99.90;;;;;;5013240;28;20672;-69
2023/07/18 12:26:34;;;;;;;7.95;7.65;;;25.20;99.90;;;;;;5012909;28;20316;-68
2023/07/18 12:29:03;;;;;;;7.38;7.07;;;25.20;99.90;;;;;;5012772;28;20324;-68
2023/07/18 12:31:33;;;;;;;6.55;6.35;;;25.10;99.90;;;;;;5012638;28;20319;-66
2023/07/18 12:34:00;;;;;;;6.40;6.20;;;25.00;99.90;;;;;;5013045;28;20219;-65
2023/07/18 12:36:27;;;;;;;7.00;6.80;;;25.00;99.90;;;;;;5013360;28;20212;-66
2023/07/18 12:38:53;;;;;;;6.47;6.28;;;25.20;99.90;;;;;;5012420;28;20285;-67
2023/07/18 12:41:20;;;;;;;6.20;5.90;;;25.10;99.90;;;;;;5011827;28;20229;-65
2023/07/18 12:43:47;;;;;;;6.70;6.50;;;25.10;99.90;;;;;;5012803;28;20213;-64
2023/07/18 12:46:14;;;;;;;6.80;6.60;;;25.20;99.90;;;;;;5012660;28;20205;-66
2023/07/18 12:48:42;;;;;;;6.85;6.65;;;25.20;99.90;;;;;;5061507;22;20251;-66